Time;durP1;ratioP1;P1;durP2;ratioP2;P2;SDS_P1;SDS_P2;PMS_P1;PMS_P2;Temp;Humidity;BMP_temperature;BMP_pressure;BME280_temperature;BME280_humidity;BME280_pressure;Samples;Min_cycle;Max_cycle;Signal;HPM_P1;HPM_P2
2021/05/21 10:17:11;;;;;;;2.53;0.88;;;20.70;45.10;;;23.47;32.20;99946.25;5129628;27;20617;-24
2021/05/21 10:19:39;;;;;;;0.82;0.80;;;20.10;46.10;;;23.66;31.80;99962.34;5107529;28;20087;-24
2021/05/21 10:22:08;;;;;;;1.23;1.00;;;20.10;46.00;;;23.72;31.80;99936.09;5109517;28;20131;-25
2021/05/21 10:24:36;;;;;;;2.38;0.90;;;20.10;46.00;;;23.77;31.67;99945.41;5129353;28;20100;-27
2021/05/21 10:27:10;;;;;;;2.45;1.10;;;20.10;46.00;;;23.74;31.44;99951.00;5129456;28;20043;-24
2021/05/21 10:29:38;;;;;;;1.92;0.93;;;20.10;46.00;;;23.77;31.35;99948.06;5110728;28;20479;-25
2021/05/21 10:32:15;;;;;;;1.58;0.82;;;20.10;46.00;;;23.76;31.57;99985.56;5128260;28;20055;-26
2021/05/21 10:34:48;;;;;;;1.45;1.00;;;20.10;46.00;;;23.75;31.43;99952.69;5109901;28;20046;-25
2021/05/21 10:37:35;;;;;;;1.92;1.27;;;20.10;45.80;;;23.75;31.31;99951.84;5108787;28;20142;-25
2021/05/21 10:40:27;;;;;;;2.25;0.95;;;20.10;45.70;;;23.70;31.47;99946.06;5108057;28;20063;-25
2021/05/21 10:43:17;;;;;;;1.98;1.30;;;20.10;45.80;;;23.68;31.41;99941.69;5117214;28;20051;-27
2021/05/21 10:46:15;;;;;;;1.48;1.15;;;20.00;45.70;;;23.68;31.37;99938.19;5075760;28;20064;-26
2021/05/21 10:48:57;;;;;;;1.38;0.98;;;20.10;45.80;;;23.65;31.44;99935.78;5090302;28;20040;-25
2021/05/21 10:51:26;;;;;;;1.88;1.27;;;20.10;45.70;;;23.68;31.49;99948.88;5107330;28;20052;-25
2021/05/21 10:54:28;;;;;;;1.77;0.98;;;20.10;45.70;;;23.67;31.35;99932.03;5107725;28;20512;-25
2021/05/21 10:57:09;;;;;;;1.40;1.30;;;20.10;45.70;;;23.71;31.51;99929.91;5107943;28;20129;-27
2021/05/21 10:59:58;;;;;;;3.28;1.13;;;20.10;45.50;;;23.76;31.15;99933.03;5098225;28;20070;-26
2021/05/21 11:06:42;;;;;;;2.40;1.20;;;20.70;42.80;;;23.27;32.57;99918.63;5171481;27;20437;-32
2021/05/21 11:09:15;;;;;;;1.17;0.98;;;21.20;42.00;;;23.86;31.78;99936.59;5132678;27;20082;-34
2021/05/21 11:12:00;;;;;;;1.23;1.00;;;21.70;41.30;;;24.27;31.30;99925.00;5151245;27;20043;-32
2021/05/21 11:14:37;;;;;;;1.17;1.08;;;22.00;40.70;;;24.61;30.64;99928.16;5150904;27;20047;-33
2021/05/21 11:17:21;;;;;;;3.75;0.98;;;22.30;40.30;;;24.87;30.33;99930.22;5149361;27;20502;-37
2021/05/21 11:20:01;;;;;;;1.40;0.85;;;22.50;40.00;;;25.13;30.14;99933.13;5123495;27;20058;-34
2021/05/21 11:22:26;;;;;;;1.92;1.17;;;22.70;39.60;;;25.38;29.71;99929.00;5071085;28;72683;-30
2021/05/21 11:25:03;;;;;;;1.23;1.02;;;22.90;39.40;;;25.56;29.57;99918.38;5108848;28;20633;-40
2021/05/21 11:27:33;;;;;;;3.65;1.00;;;23.00;39.20;;;25.75;29.16;99927.28;5059230;28;20517;-41
2021/05/21 11:30:08;;;;;;;3.10;1.00;;;23.20;38.80;;;25.92;28.94;99939.88;5091498;28;20078;-35
2021/05/21 11:32:37;;;;;;;2.25;1.27;;;23.30;38.50;;;25.85;29.34;99931.59;5074039;28;20437;-45
2021/05/21 11:35:05;;;;;;;2.25;1.13;;;23.70;40.00;;;26.23;28.73;99937.72;5074562;28;20044;-49
2021/05/21 11:37:31;;;;;;;2.08;0.93;;;23.90;37.70;;;26.49;28.02;99928.91;5090723;28;20047;-50
2021/05/21 11:40:01;;;;;;;5.47;1.42;;;23.90;37.70;;;26.57;27.80;99929.00;5091261;28;20055;-45
2021/05/21 11:42:27;;;;;;;10.27;1.30;;;23.90;37.70;;;26.70;27.82;99930.50;5091285;28;20556;-54
2021/05/21 11:44:56;;;;;;;5.78;1.50;;;23.90;37.70;;;26.77;27.54;99937.72;5090933;28;20048;-48
2021/05/21 11:47:29;;;;;;;6.32;1.48;;;24.00;37.70;;;26.79;27.53;99934.91;5073947;28;20054;-50
2021/05/21 11:49:56;;;;;;;9.10;1.63;;;23.80;37.60;;;26.82;27.57;99944.50;5074235;28;20486;-30
2021/05/21 11:52:23;;;;;;;3.47;1.48;;;23.70;39.20;;;26.46;27.91;99936.44;5073990;28;20041;-49
2021/05/21 11:54:49;;;;;;;1.58;1.20;;;23.70;38.20;;;26.62;27.79;99950.81;5073640;28;20058;-52
2021/05/21 11:57:22;;;;;;;2.42;1.25;;;23.70;38.10;;;26.76;27.36;99949.47;5057664;28;20036;-46
2021/05/21 11:59:48;;;;;;;2.33;1.13;;;23.50;38.00;;;26.77;27.05;99956.50;5073511;28;20139;-49
2021/05/21 12:02:16;;;;;;;2.88;1.33;;;23.40;38.10;;;26.72;27.12;99948.09;5073846;28;20047;-50
2021/05/21 12:04:44;;;;;;;3.83;1.13;;;23.30;38.20;;;26.68;27.04;99952.09;5056223;28;20051;-47
2021/05/21 12:07:20;;;;;;;3.20;1.30;;;23.20;38.30;;;26.57;27.09;99944.25;5073701;28;20051;-50
2021/05/21 12:10:04;;;;;;;2.60;1.30;;;23.10;38.50;;;26.53;27.02;99946.41;5072783;28;20178;-50
2021/05/21 12:12:32;;;;;;;4.43;1.35;;;23.00;38.60;;;26.52;26.90;99941.19;5074760;28;20052;-50
2021/05/21 12:15:12;;;;;;;2.05;1.20;;;23.00;38.60;;;26.54;27.24;99939.19;5057437;28;20102;-50
2021/05/21 12:17:44;;;;;;;3.00;1.27;;;23.30;38.30;;;26.51;27.05;99936.81;5077847;28;20044;-51
2021/05/21 12:20:12;;;;;;;4.15;1.38;;;23.40;38.00;;;26.56;27.08;99940.72;5076860;28;20056;-50
2021/05/21 12:22:56;;;;;;;1.80;1.10;;;23.50;37.80;;;26.58;27.07;99936.06;5060606;28;20442;-53
2021/05/21 12:25:22;;;;;;;2.30;1.17;;;23.60;37.70;;;26.62;27.03;99928.53;5095189;28;20052;-50
2021/05/21 12:27:49;;;;;;;4.07;1.30;;;23.60;37.50;;;26.64;26.94;99920.38;5043104;28;20036;-53
2021/05/21 12:30:15;;;;;;;1.92;0.80;;;23.70;37.40;;;26.67;26.74;99910.19;5060467;28;20048;-52
2021/05/21 12:32:41;;;;;;;3.30;1.30;;;23.70;37.30;;;26.70;26.65;99903.66;5060567;28;20044;-52
2021/05/21 12:35:10;;;;;;;2.05;1.20;;;23.70;37.30;;;26.73;26.89;99920.28;5077031;28;20166;-51
2021/05/21 12:37:49;;;;;;;4.40;1.40;;;23.90;37.20;;;26.75;26.90;99915.59;5060213;28;20086;-51
2021/05/21 12:40:17;;;;;;;5.25;1.52;;;23.90;37.00;;;26.83;26.42;99911.28;5058493;28;20460;-53
2021/05/21 12:42:53;;;;;;;4.25;1.20;;;24.00;36.80;;;26.88;26.60;99901.78;5094673;28;20048;-53
2021/05/21 12:45:19;;;;;;;2.13;1.20;;;24.10;36.70;;;26.97;26.26;99898.16;5059483;28;20044;-52
2021/05/21 12:47:50;;;;;;;2.45;1.30;;;24.20;36.50;;;27.03;26.49;99885.09;5059529;28;20482;-53
2021/05/21 12:50:19;;;;;;;2.53;1.50;;;24.20;36.40;;;27.06;26.13;99885.63;5060639;28;20365;-52
2021/05/21 12:53:01;;;;;;;1.23;1.05;;;24.10;37.20;;;27.03;26.33;99888.66;5076173;28;20089;-48
2021/05/21 12:55:27;;;;;;;1.33;0.90;;;23.90;37.00;;;27.02;26.15;99894.16;5094506;28;20453;-48
2021/05/21 12:57:57;;;;;;;2.80;1.25;;;23.70;37.10;;;26.98;26.00;99882.88;5076924;28;20044;-52
2021/05/21 13:00:25;;;;;;;1.73;1.17;;;23.50;37.30;;;26.97;26.08;99875.84;5076195;28;20503;-52
2021/05/21 13:02:56;;;;;;;4.32;1.50;;;23.50;37.50;;;26.89;26.31;99882.00;5058553;28;20060;-48
2021/05/21 13:05:27;;;;;;;1.65;1.00;;;23.40;37.60;;;26.85;26.18;99880.66;5042774;28;20105;-53
2021/05/21 13:07:59;;;;;;;2.33;1.25;;;23.30;37.60;;;26.86;26.12;99878.78;5092847;28;20040;-52
2021/05/21 13:10:27;;;;;;;2.08;0.90;;;23.30;37.70;;;26.80;26.15;99872.22;5025664;28;20045;-54
2021/05/21 13:12:56;;;;;;;2.58;1.50;;;23.30;37.70;;;26.82;26.15;99877.44;5043758;28;20056;-52
2021/05/21 13:15:25;;;;;;;2.67;1.23;;;23.40;37.70;;;26.79;26.18;99887.47;5076355;28;20056;-52
2021/05/21 13:17:55;;;;;;;3.53;1.20;;;23.40;37.60;;;26.77;25.93;99891.31;5042661;28;20102;-50
2021/05/21 13:20:29;;;;;;;2.35;0.95;;;23.40;37.60;;;26.80;26.07;99894.53;5059397;28;20052;-50
2021/05/21 13:22:59;;;;;;;3.53;1.17;;;23.30;37.60;;;26.77;26.14;99891.31;5059788;28;20098;-50
2021/05/21 13:25:29;;;;;;;2.70;1.27;;;23.30;37.70;;;26.83;26.20;99887.16;5059632;28;20040;-49
2021/05/21 13:28:00;;;;;;;3.75;1.33;;;23.50;37.70;;;26.83;26.17;99904.09;5088926;28;20281;-57
2021/05/21 13:30:26;;;;;;;4.45;1.20;;;23.50;38.00;;;26.76;26.09;99906.56;5059191;28;20135;-60
2021/05/21 13:32:52;;;;;;;4.72;2.00;;;23.20;38.10;;;26.60;25.35;99901.03;5059050;28;20048;-61
2021/05/21 13:35:20;;;;;;;6.20;1.60;;;22.80;37.30;;;26.41;26.01;99902.03;5075619;28;20048;-61
2021/05/21 13:37:49;;;;;;;5.30;1.23;;;22.50;39.00;;;26.36;26.36;99920.41;5075758;28;20502;-60
2021/05/21 13:40:15;;;;;;;3.15;1.33;;;22.50;39.50;;;26.27;26.55;99900.75;5059128;28;20066;-61
2021/05/21 13:42:41;;;;;;;6.57;1.30;;;22.50;39.70;;;26.25;26.80;99900.06;5058867;28;20048;-59
2021/05/21 13:45:08;;;;;;;4.80;1.63;;;22.50;39.90;;;26.21;26.90;99896.84;5075457;28;20127;-60
2021/05/21 13:47:35;;;;;;;2.83;1.23;;;22.50;40.00;;;26.16;26.89;99892.94;5092258;28;20394;-59
2021/05/21 13:50:01;;;;;;;2.53;1.15;;;22.40;40.10;;;26.15;27.27;99902.81;5075525;28;20149;-60
2021/05/21 13:52:26;;;;;;;2.97;1.10;;;22.40;40.50;;;26.13;27.46;99901.28;5058668;28;20087;-59
2021/05/21 13:54:52;;;;;;;2.10;1.30;;;22.40;40.90;;;26.12;27.45;99891.56;5058562;28;20044;-63
2021/05/21 13:57:18;;;;;;;3.75;1.23;;;22.50;41.00;;;26.11;27.57;99903.25;5058838;28;20040;-62
2021/05/21 13:59:44;;;;;;;4.93;1.27;;;22.50;41.20;;;26.15;27.71;99900.13;5042762;28;20106;-45
2021/05/21 14:02:10;;;;;;;4.18;1.40;;;22.50;41.20;;;26.16;27.72;99925.94;5075384;28;20128;-45
2021/05/21 14:04:37;;;;;;;2.90;1.08;;;22.50;41.20;;;26.12;27.78;99947.81;5042133;28;20378;-47
2021/05/21 14:07:03;;;;;;;5.95;1.20;;;22.40;41.10;;;26.06;27.71;99954.63;5058301;28;20479;-44
2021/05/21 14:09:30;;;;;;;2.47;1.10;;;22.40;41.30;;;26.02;27.86;99958.59;5043111;28;20507;-45
2021/05/21 14:11:57;;;;;;;3.45;1.50;;;22.30;41.40;;;25.92;27.96;99952.44;5040856;28;20387;-45
2021/05/21 14:14:24;;;;;;;4.75;1.70;;;22.20;41.50;;;25.85;27.89;99961.03;5075613;28;20051;-44
2021/05/21 14:16:50;;;;;;;5.85;1.48;;;22.20;41.30;;;25.81;28.03;99962.34;5041573;28;20197;-46
2021/05/21 14:19:18;;;;;;;5.82;1.60;;;22.10;41.30;;;25.78;28.00;99946.56;5057492;28;20076;-44
2021/05/21 14:21:43;;;;;;;3.08;1.35;;;22.10;41.30;;;25.77;28.01;99933.34;5074849;28;20048;-44
2021/05/21 14:24:11;;;;;;;3.53;1.73;;;22.10;41.30;;;25.80;28.06;99936.56;5058849;28;20044;-46
2021/05/21 14:26:38;;;;;;;4.05;1.40;;;22.20;41.30;;;25.84;27.93;99942.44;5041527;28;20052;-45
2021/05/21 14:29:12;;;;;;;2.65;1.33;;;22.20;41.20;;;25.87;28.07;99934.13;5043181;28;20408;-45
2021/05/21 14:31:48;;;;;;;3.72;1.23;;;22.20;41.30;;;25.93;28.00;99932.66;5025251;28;20079;-45
2021/05/21 14:34:24;;;;;;;2.90;1.40;;;22.20;41.10;;;25.99;27.76;99938.28;5074815;28;20052;-44
2021/05/21 14:36:54;;;;;;;2.55;1.00;;;22.30;40.80;;;26.01;27.71;99930.13;5058149;28;20483;-45
2021/05/21 14:39:22;;;;;;;3.47;1.30;;;22.30;40.60;;;25.99;27.76;99924.06;5057749;28;20044;-45
2021/05/21 14:41:50;;;;;;;9.20;1.42;;;22.30;40.50;;;25.98;27.50;99927.75;5074691;28;20048;-45
2021/05/21 14:44:18;;;;;;;3.47;1.50;;;22.30;40.50;;;25.98;27.52;99925.91;5092780;28;20403;-49
2021/05/21 14:46:47;;;;;;;3.22;1.20;;;22.30;40.40;;;26.02;27.57;99938.00;5058466;28;20492;-44
2021/05/21 14:49:13;;;;;;;2.53;1.10;;;22.30;40.30;;;26.04;27.46;99925.31;5054206;28;20066;-44
2021/05/21 14:51:41;;;;;;;2.15;1.13;;;22.30;40.20;;;26.02;27.57;99923.78;5056931;28;20048;-44
2021/05/21 14:54:07;;;;;;;2.53;1.20;;;22.30;40.20;;;26.01;27.29;99927.44;5073915;28;20395;-44
2021/05/21 14:56:33;;;;;;;4.65;1.55;;;22.30;40.20;;;25.98;27.41;99922.41;5056008;28;20041;-45
2021/05/21 14:59:02;;;;;;;4.43;1.30;;;22.30;40.80;;;25.92;27.48;99920.28;5024554;28;20043;-46
2021/05/21 15:01:27;;;;;;;4.82;1.63;;;22.20;40.30;;;25.88;27.41;99915.22;5042630;28;20063;-47
2021/05/21 15:03:55;;;;;;;5.45;1.20;;;22.20;40.30;;;25.89;27.31;99921.41;5041877;28;20093;-44
2021/05/21 15:06:23;;;;;;;2.80;1.05;;;22.10;40.30;;;25.87;27.51;99910.84;5057798;28;20044;-45
2021/05/21 15:08:50;;;;;;;4.75;1.40;;;22.10;40.30;;;25.82;27.57;99902.44;5041161;28;20044;-45
2021/05/21 15:11:19;;;;;;;4.05;1.38;;;22.10;40.40;;;25.83;27.40;99908.66;5057965;28;20408;-45
2021/05/21 15:13:46;;;;;;;3.60;1.58;;;22.10;40.40;;;25.82;27.22;99913.13;5041232;28;20070;-46
2021/05/21 15:16:34;;;;;;;1.88;1.02;;;22.10;40.40;;;25.80;27.44;99908.94;5091186;28;20054;-46
2021/05/21 15:22:00;;;;;;;2.22;1.15;;;22.00;40.40;;;25.73;27.66;99919.41;5056810;28;20551;-44
2021/05/21 15:24:30;;;;;;;3.92;1.15;;;22.00;40.40;;;25.70;27.35;99907.16;5042958;28;20087;-46
2021/05/21 15:26:56;;;;;;;4.30;1.35;;;22.00;40.40;;;25.69;27.58;99918.88;5075098;28;20052;-45
2021/05/21 15:29:24;;;;;;;3.85;1.10;;;22.00;40.30;;;25.66;27.46;99912.94;5053358;28;20107;-45
2021/05/21 15:31:51;;;;;;;2.97;1.13;;;22.00;40.40;;;25.64;27.41;99914.94;5074114;28;20043;-49
2021/05/21 15:34:20;;;;;;;2.50;1.10;;;22.00;40.30;;;25.66;27.62;99912.94;5040763;28;20083;-46
2021/05/21 15:36:49;;;;;;;2.15;1.00;;;22.10;40.30;;;25.66;27.58;99912.94;5041375;28;20479;-46
2021/05/21 15:39:15;;;;;;;2.15;1.10;;;22.10;40.30;;;25.67;27.62;99918.16;5039890;28;20045;-47
2021/05/21 15:45:24;;;;;;;2.90;1.27;;;22.10;40.30;;;25.63;27.74;99902.56;5090803;28;20498;-47
2021/05/21 15:47:23;;;;;;;3.30;1.10;;;22.10;40.20;;;25.69;27.61;99909.97;5076752;28;20044;-46
2021/05/21 15:49:55;;;;;;;2.17;1.00;;;22.20;40.10;;;25.73;27.47;99915.88;5074128;28;20055;-46
2021/05/21 15:52:44;;;;;;;1.98;0.88;;;22.20;40.00;;;25.75;27.39;99916.59;5026765;28;20044;-45
2021/05/21 15:55:19;;;;;;;2.05;1.17;;;22.20;40.00;;;25.75;27.43;99912.06;5055676;28;20048;-46
2021/05/21 16:00:12;;;;;;;2.00;1.05;;;22.20;39.90;;;25.79;27.30;99910.75;5077895;28;20067;-45
2021/05/21 16:02:38;;;;;;;2.55;1.10;;;22.30;39.80;;;25.86;27.16;99916.34;5077355;28;20479;-44
2021/05/21 16:05:06;;;;;;;3.90;1.35;;;22.30;39.80;;;25.81;27.17;99946.28;5028487;28;20045;-47
2021/05/21 16:07:32;;;;;;;4.35;1.40;;;22.30;39.80;;;25.81;27.20;99999.84;5026525;28;20049;-45
2021/05/21 16:09:59;;;;;;;3.97;1.35;;;22.20;39.90;;;25.76;27.24;99998.56;5061038;28;20051;-50
2021/05/21 16:12:25;;;;;;;2.50;0.90;;;22.10;40.00;;;25.71;27.31;100007.06;5060452;28;20487;-46
2021/05/21 16:14:51;;;;;;;2.88;1.13;;;22.00;40.10;;;25.66;27.49;100012.00;5095739;28;20051;-48
2021/05/21 16:17:18;;;;;;;1.95;0.95;;;22.00;40.20;;;25.64;27.32;100011.31;5077213;28;20082;-46
2021/05/21 16:19:45;;;;;;;2.90;1.10;;;22.00;40.30;;;25.60;27.47;100005.41;5060336;28;20083;-45
2021/05/21 16:22:11;;;;;;;2.47;1.10;;;21.90;40.30;;;25.59;27.34;100006.38;5060157;28;20444;-46
2021/05/21 16:24:39;;;;;;;1.55;1.00;;;21.90;40.40;;;25.57;27.57;99996.81;5061586;28;20068;-45
2021/05/21 16:27:06;;;;;;;4.32;1.13;;;21.90;40.40;;;25.52;27.47;99973.16;5060207;28;20044;-45
2021/05/21 16:29:32;;;;;;;2.13;1.10;;;21.90;40.40;;;25.55;27.48;99977.41;5025573;28;20045;-49
2021/05/21 16:31:57;;;;;;;2.63;1.30;;;21.80;40.40;;;25.48;27.54;99958.41;5060088;28;20048;-45
2021/05/21 16:34:23;;;;;;;2.40;1.10;;;21.80;41.00;;;25.49;27.67;99944.88;5060065;28;20048;-47
2021/05/21 16:36:49;;;;;;;5.70;1.45;;;21.80;40.50;;;25.47;27.63;99937.97;5073263;28;20487;-47
2021/05/21 16:39:16;;;;;;;2.78;1.20;;;21.80;40.50;;;25.45;27.69;99930.09;5060002;28;20090;-45
2021/05/21 16:41:42;;;;;;;3.83;1.05;;;21.80;40.50;;;25.46;27.61;99923.75;5060202;28;20100;-45
2021/05/21 16:44:08;;;;;;;1.33;0.70;;;21.80;40.40;;;25.46;27.61;99918.41;5058840;28;20049;-48
2021/05/21 16:46:34;;;;;;;2.92;1.00;;;21.90;40.40;;;25.51;27.51;99923.31;5041662;28;20087;-44
2021/05/21 16:49:00;;;;;;;4.30;1.20;;;21.90;40.30;;;25.55;27.45;99927.38;5061481;28;20044;-45
2021/05/21 16:51:26;;;;;;;3.17;1.30;;;21.90;40.20;;;25.52;27.54;99915.13;5044128;28;20048;-45
2021/05/21 16:53:52;;;;;;;2.33;1.17;;;22.00;40.20;;;25.57;27.54;99927.22;5041567;28;20053;-47
2021/05/21 16:56:18;;;;;;;1.80;0.98;;;22.00;40.20;;;25.59;27.36;99918.03;5060343;28;20048;-48
2021/05/21 16:58:46;;;;;;;3.25;1.08;;;22.00;40.10;;;25.62;27.52;99916.91;5042244;28;20484;-44
2021/05/21 17:01:14;;;;;;;2.60;0.98;;;22.00;40.00;;;25.60;27.29;99905.53;5043106;28;20044;-47
2021/05/21 17:03:40;;;;;;;1.65;1.05;;;22.00;40.50;;;25.65;27.29;99913.94;5059736;28;20090;-44
2021/05/21 17:06:08;;;;;;;4.50;1.00;;;22.00;40.00;;;25.64;27.55;99917.59;5094399;28;20052;-47
2021/05/21 17:08:34;;;;;;;3.22;1.00;;;22.10;40.60;;;25.62;27.43;99925.78;5042998;28;20131;-46
2021/05/21 17:11:03;;;;;;;2.08;1.00;;;22.10;40.00;;;25.64;27.40;99929.19;5027918;28;20098;-44
2021/05/21 17:13:30;;;;;;;1.30;0.77;;;22.00;39.90;;;25.65;27.31;99930.84;5059817;28;20059;-46
2021/05/21 17:16:06;;;;;;;2.30;1.10;;;22.00;39.90;;;25.67;27.42;99934.22;5027079;28;20072;-45
2021/05/21 17:27:11;;;;;;;1.95;1.05;;;21.90;40.10;;;25.53;27.38;99915.97;5042490;28;20081;-44
2021/05/21 17:30:01;;;;;;;1.20;0.75;;;21.90;40.20;;;25.49;27.36;99920.78;5062760;28;20060;-45
2021/05/21 17:43:14;;;;;;;1.70;0.90;;;21.60;40.50;;;25.32;27.63;99865.34;5076048;28;20087;-49
2021/05/21 17:45:55;;;;;;;3.13;0.93;;;21.60;40.60;;;25.32;27.77;99862.69;5077237;28;20048;-47
2021/05/21 17:56:35;;;;;;;3.67;0.93;;;21.60;40.70;;;25.24;27.90;99844.69;5061337;28;20075;-49
2021/05/21 18:07:15;;;;;;;1.17;0.73;;;21.50;40.70;;;25.18;27.86;99853.28;5093541;28;20043;-45
2021/05/21 18:09:59;;;;;;;1.20;0.77;;;21.50;40.80;;;25.16;27.76;99865.97;5060202;28;20067;-47
2021/05/21 18:15:30;;;;;;;4.20;1.10;;;21.40;40.90;;;25.11;27.92;99938.63;5041646;28;20080;-44
2021/05/21 18:23:46;;;;;;;2.80;0.90;;;21.30;41.10;;;25.03;27.82;99953.72;5056946;28;20080;-46
2021/05/21 18:42:53;;;;;;;3.72;1.00;;;21.00;41.60;;;24.66;28.29;99868.91;5060775;28;20093;-44
2021/05/21 18:48:08;;;;;;;1.35;0.70;;;20.90;41.80;;;24.57;28.33;99863.44;5070620;28;20513;-44
2021/05/21 19:01:30;;;;;;;1.10;0.70;;;20.80;42.00;;;24.33;28.79;99857.66;5077230;28;20044;-46
2021/05/21 19:03:56;;;;;;;1.95;0.93;;;20.80;42.10;;;24.32;28.61;99851.47;5044535;28;20068;-45
2021/05/21 19:06:40;;;;;;;2.03;0.75;;;20.80;42.10;;;24.27;28.84;99850.22;5074622;28;20056;-45
2021/05/21 19:09:13;;;;;;;1.85;1.17;;;20.80;42.10;;;24.28;28.88;99857.25;5092265;28;20422;-44
2021/05/21 19:11:50;;;;;;;2.03;0.95;;;20.70;42.10;;;24.23;28.85;99868.34;5057939;28;20105;-44
2021/05/21 19:17:09;;;;;;;1.58;0.80;;;20.70;42.30;;;24.18;28.99;99868.75;5077354;28;20068;-45
2021/05/21 19:19:39;;;;;;;1.52;0.85;;;20.60;42.30;;;24.17;28.83;99871.56;5058849;28;20090;-47
2021/05/21 19:22:05;;;;;;;1.23;0.98;;;20.70;42.30;;;24.14;28.99;99854.00;5057875;28;20048;-45
2021/05/21 19:24:31;;;;;;;0.77;0.77;;;20.60;42.30;;;24.15;28.96;99855.69;5058115;28;20095;-46
2021/05/21 19:26:57;;;;;;;1.73;0.80;;;20.60;42.30;;;24.16;28.91;99845.88;5092647;28;20043;-47
2021/05/21 19:29:47;;;;;;;1.15;0.90;;;20.60;42.40;;;24.16;28.88;99845.88;5031271;28;20080;-46
2021/05/21 19:32:21;;;;;;;1.23;0.90;;;20.60;42.40;;;24.13;29.17;99832.78;5077810;28;20101;-49
2021/05/21 19:35:14;;;;;;;0.98;0.63;;;20.50;42.40;;;24.14;29.28;99839.78;5062585;28;20056;-45
2021/05/21 19:40:38;;;;;;;2.13;0.90;;;20.60;42.50;;;24.11;29.11;99845.44;5079635;28;20139;-45
2021/05/21 19:43:22;;;;;;;1.58;0.88;;;20.50;42.50;;;24.10;28.91;99825.06;5061077;28;20120;-44
2021/05/21 19:46:14;;;;;;;0.95;0.73;;;20.50;42.50;;;24.10;29.03;99835.72;5074107;28;20048;-46
2021/05/21 19:52:39;;;;;;;3.70;0.88;;;20.50;42.60;;;24.10;29.01;99841.91;5079884;28;20048;-46
2021/05/21 19:57:46;;;;;;;2.97;1.20;;;20.40;42.60;;;24.05;29.13;99842.31;5095721;28;20052;-50
2021/05/21 20:00:26;;;;;;;0.93;0.70;;;20.40;42.70;;;24.02;29.08;99833.75;5077118;28;20048;-46
2021/05/21 20:03:25;;;;;;;1.17;0.75;;;20.40;42.70;;;24.02;29.32;99836.41;5064310;28;20047;-48
2021/05/21 20:14:07;;;;;;;2.08;1.13;;;20.40;42.80;;;23.88;29.24;99810.16;5075411;28;20049;-45
2021/05/21 20:16:33;;;;;;;0.65;0.63;;;20.30;42.80;;;23.86;29.28;99810.28;5045518;28;20139;-47
2021/05/21 20:19:00;;;;;;;1.35;0.63;;;20.30;42.90;;;23.84;29.35;99812.25;5028350;28;20048;-49
2021/05/21 20:21:25;;;;;;;1.23;0.70;;;20.30;42.90;;;23.84;29.47;99814.94;5043767;28;20036;-45
2021/05/21 20:23:52;;;;;;;1.10;0.88;;;20.30;43.00;;;23.78;29.56;99812.78;5060133;28;20135;-46
2021/05/21 20:26:22;;;;;;;1.55;0.70;;;20.20;43.00;;;23.76;29.48;99820.91;5045174;28;20055;-47
2021/05/21 20:29:39;;;;;;;0.73;0.63;;;20.20;43.00;;;23.76;29.58;99818.25;5095117;28;20059;-46
2021/05/21 20:42:03;;;;;;;1.70;0.75;;;20.20;43.10;;;23.65;29.62;99792.50;5077078;28;20040;-45
2021/05/21 21:08:57;;;;;;;1.65;1.08;;;20.00;43.30;;;23.51;29.85;99816.94;5049073;28;20060;-47
2021/05/21 21:14:03;;;;;;;1.27;0.90;;;20.00;43.40;;;23.51;30.00;99829.44;5060877;28;20045;-45
2021/05/21 21:22:01;;;;;;;0.75;0.73;;;20.00;43.50;;;23.48;29.97;99913.25;5060339;28;20051;-44
2021/05/21 21:25:02;;;;;;;1.20;0.88;;;20.00;43.50;;;23.46;29.90;99904.56;5076269;28;20056;-47
2021/05/21 21:33:24;;;;;;;1.23;0.80;;;20.00;43.50;;;23.43;29.92;99875.47;5070019;28;20391;-44
2021/05/21 21:49:10;;;;;;;0.70;0.70;;;19.90;43.60;;;23.33;30.10;99818.59;5058866;28;20049;-46
2021/05/21 21:54:32;;;;;;;0.82;0.70;;;19.90;43.60;;;23.34;30.08;99837.13;5075518;28;20094;-46
2021/05/21 21:59:43;;;;;;;1.10;0.80;;;19.90;43.60;;;23.34;30.05;99829.13;5094212;28;20040;-44
2021/05/21 22:05:14;;;;;;;1.73;0.80;;;19.90;43.60;;;23.33;30.17;99832.75;5059655;28;20469;-46
2021/05/21 22:12:47;;;;;;;1.13;0.75;;;19.80;43.70;;;23.37;30.10;99831.53;5059480;28;20143;-45
2021/05/21 22:15:33;;;;;;;2.20;1.10;;;19.80;43.70;;;23.31;30.15;99822.22;5060297;28;20048;-47
2021/05/21 22:18:21;;;;;;;0.68;0.65;;;19.80;43.70;;;23.31;30.10;99816.88;5078278;28;20047;-46
2021/05/21 22:26:17;;;;;;;0.60;0.60;;;19.80;43.70;;;23.27;30.15;99807.47;5019551;28;20043;-45
2021/05/21 22:28:43;;;;;;;0.80;0.70;;;19.80;43.70;;;23.25;30.31;99806.75;5011355;28;20168;-46
2021/05/21 22:31:09;;;;;;;2.63;0.90;;;19.80;43.80;;;23.27;30.17;99807.47;5026069;28;20471;-44
2021/05/21 22:33:35;;;;;;;0.90;0.70;;;19.80;43.80;;;23.27;30.19;99817.28;5058571;28;20055;-47
2021/05/21 22:36:05;;;;;;;0.60;0.60;;;19.70;43.80;;;23.24;30.17;99810.41;5075053;28;20487;-44
2021/05/21 22:38:31;;;;;;;0.50;0.50;;;19.80;43.80;;;23.21;30.24;99800.00;5058223;28;20051;-48
2021/05/21 22:40:57;;;;;;;0.65;0.60;;;19.70;43.80;;;23.21;30.10;99800.00;5058129;28;20040;-47
2021/05/21 22:43:23;;;;;;;1.02;0.75;;;19.70;43.80;;;23.22;30.28;99807.03;5058058;28;20644;-45
2021/05/21 22:45:49;;;;;;;0.60;0.50;;;19.70;43.80;;;23.23;30.14;99800.72;5057902;28;20048;-44
2021/05/21 22:48:15;;;;;;;1.05;0.50;;;19.70;43.80;;;23.22;30.19;99795.50;5043697;28;20546;-46
2021/05/21 22:50:40;;;;;;;0.68;0.60;;;19.70;43.80;;;23.19;30.45;99788.63;5057952;28;20048;-44
2021/05/21 22:53:06;;;;;;;1.42;0.75;;;19.70;43.90;;;23.21;30.18;99793.84;5058007;28;20056;-46
2021/05/21 22:55:32;;;;;;;1.25;0.77;;;19.70;43.90;;;23.18;30.21;99794.94;5039800;28;20132;-44
2021/05/21 22:57:58;;;;;;;0.98;0.63;;;19.70;43.90;;;23.18;30.27;99789.59;5058080;28;20044;-45
2021/05/21 23:00:24;;;;;;;0.75;0.60;;;19.70;43.90;;;23.16;30.41;99780.91;5074826;28;20472;-47
2021/05/21 23:02:50;;;;;;;1.58;0.70;;;19.70;43.90;;;23.15;30.30;99779.22;5092657;28;20051;-48
2021/05/21 23:05:16;;;;;;;1.20;0.80;;;19.70;43.90;;;23.16;30.33;99775.56;5058038;28;20044;-45
2021/05/21 23:07:41;;;;;;;0.90;0.80;;;19.70;44.00;;;23.16;30.41;99767.56;5057743;28;20048;-44
2021/05/21 23:10:08;;;;;;;0.75;0.75;;;19.70;44.00;;;23.13;30.30;99760.69;5057033;28;20051;-45
2021/05/21 23:12:34;;;;;;;0.95;0.63;;;19.70;44.00;;;23.09;30.29;99756.59;5041625;28;20044;-45
2021/05/21 23:15:00;;;;;;;2.05;0.80;;;19.60;44.00;;;23.10;30.37;99760.09;5058044;28;20494;-44
2021/05/21 23:17:26;;;;;;;0.98;0.70;;;19.60;44.00;;;23.10;30.30;99763.63;5074463;28;20057;-46
2021/05/21 23:19:51;;;;;;;1.20;0.73;;;19.60;44.00;;;23.10;30.49;99755.63;5057922;28;20131;-44
2021/05/21 23:22:17;;;;;;;0.60;0.60;;;19.60;44.00;;;23.09;30.44;99750.44;5057901;28;20040;-46
2021/05/21 23:24:43;;;;;;;0.70;0.68;;;19.60;44.00;;;23.08;30.37;99746.06;5057495;28;20131;-46
2021/05/21 23:27:09;;;;;;;1.45;0.77;;;19.60;44.10;;;23.06;30.30;99743.53;5074623;28;20044;-44
2021/05/21 23:29:35;;;;;;;0.75;0.65;;;19.60;44.10;;;23.06;30.37;99743.53;5057431;28;20135;-44
2021/05/21 23:32:00;;;;;;;0.73;0.73;;;19.60;44.10;;;23.07;30.42;99741.72;5057520;28;20048;-44
2021/05/21 23:34:26;;;;;;;1.67;0.80;;;19.60;44.10;;;23.06;30.48;99738.22;5057863;28;20122;-45
2021/05/21 23:36:52;;;;;;;1.13;0.70;;;19.60;44.10;;;23.01;30.50;99737.75;5091322;28;20036;-45
2021/05/21 23:39:18;;;;;;;1.65;0.70;;;19.60;44.20;;;22.99;30.57;99731.72;5057744;28;20131;-47
2021/05/21 23:41:44;;;;;;;2.33;0.60;;;19.60;44.20;;;23.01;30.54;99739.56;5074572;28;20051;-43
2021/05/21 23:44:10;;;;;;;1.00;0.75;;;19.60;44.20;;;23.00;30.56;99736.03;5039606;28;20049;-43
2021/05/21 23:46:36;;;;;;;0.88;0.80;;;19.50;44.10;;;23.00;30.21;99738.72;5055378;28;20055;-44
2021/05/21 23:49:02;;;;;;;1.85;1.27;;;19.60;44.20;;;23.00;30.47;99740.53;5092018;28;20426;-45
2021/05/21 23:51:28;;;;;;;1.40;0.80;;;19.50;44.10;;;23.01;30.64;99748.41;5057306;28;20586;-44
2021/05/21 23:53:54;;;;;;;0.68;0.60;;;19.50;44.20;;;22.97;30.55;99739.00;5024661;28;20056;-44
2021/05/21 23:56:20;;;;;;;0.60;0.55;;;19.50;44.20;;;22.99;30.49;99741.50;5040609;28;20075;-46
2021/05/21 23:58:46;;;;;;;0.65;0.60;;;19.50;44.20;;;22.99;30.54;99741.50;5041737;28;20071;-44
